createdAt,value
2023-05-14T00:00:52.481Z,1.55
2023-05-14T00:03:19.320Z,1.70
2023-05-14T00:05:46.161Z,1.58
2023-05-14T00:10:39.644Z,1.60
2023-05-14T00:13:06.403Z,1.88
2023-05-14T00:15:34.316Z,1.70
2023-05-14T00:18:01.487Z,2.10
2023-05-14T00:20:28.472Z,1.60
2023-05-14T00:22:55.362Z,1.77
2023-05-14T00:25:22.072Z,1.80
2023-05-14T00:30:15.477Z,1.90
2023-05-14T00:32:42.227Z,2.00
2023-05-14T00:35:09.319Z,1.83
2023-05-14T00:37:36.947Z,1.90
2023-05-14T00:40:04.375Z,1.55
2023-05-14T00:42:31.115Z,1.40
2023-05-14T00:47:24.475Z,1.38
2023-05-14T00:49:51.207Z,1.40
2023-05-14T00:54:47.167Z,1.25
2023-05-14T00:57:14.066Z,1.13
2023-05-14T00:59:42.537Z,1.00
2023-05-14T01:02:09.303Z,1.00
2023-05-14T01:07:21.501Z,1.00
2023-05-14T01:10:02.498Z,1.10
2023-05-14T01:12:40.950Z,1.50
2023-05-14T01:15:12.473Z,1.70
2023-05-14T01:17:44.347Z,1.13
2023-05-14T01:20:11.787Z,1.00
2023-05-14T01:22:38.702Z,1.15
2023-05-14T01:25:06.911Z,1.08
2023-05-14T01:27:50.048Z,1.60
2023-05-14T01:30:25.139Z,1.25
2023-05-14T01:32:55.568Z,0.93
2023-05-14T01:35:27.999Z,0.80
2023-05-14T01:38:00.866Z,1.00
2023-05-14T01:40:28.185Z,1.10
2023-05-14T01:42:55.551Z,1.10
2023-05-14T01:45:23.327Z,0.80
2023-05-14T01:47:51.118Z,0.90
2023-05-14T01:50:18.437Z,1.10
2023-05-14T01:52:45.203Z,1.38
2023-05-14T01:55:12.001Z,1.23
2023-05-14T01:57:38.712Z,1.27
2023-05-14T02:02:32.819Z,1.40
2023-05-14T02:04:59.643Z,1.42
2023-05-14T02:09:53.007Z,1.30
2023-05-14T02:14:46.557Z,1.30
2023-05-14T02:17:15.866Z,1.63
2023-05-14T02:19:42.682Z,1.20
2023-05-14T02:22:09.577Z,1.60
2023-05-14T02:24:36.369Z,1.30
2023-05-14T02:27:03.395Z,1.58
2023-05-14T02:29:30.143Z,1.60
2023-05-14T02:34:24.866Z,1.33
2023-05-14T02:36:51.645Z,1.33
2023-05-14T02:39:18.421Z,1.35
2023-05-14T02:41:45.237Z,1.40
2023-05-14T02:44:12.053Z,1.40
2023-05-14T02:46:38.847Z,1.23
2023-05-14T02:49:06.842Z,1.00
2023-05-14T02:54:00.506Z,1.40
2023-05-14T02:56:27.229Z,1.48
2023-05-14T03:01:21.084Z,1.10
2023-05-14T03:03:48.706Z,1.33
2023-05-14T03:06:15.915Z,1.10
2023-05-14T03:08:42.780Z,1.23
2023-05-14T03:11:09.628Z,1.13
2023-05-14T03:13:36.307Z,1.25
2023-05-14T03:16:03.074Z,1.17
2023-05-14T03:20:57.700Z,1.20
2023-05-14T03:23:24.426Z,1.10
2023-05-14T03:28:17.821Z,1.20
2023-05-14T03:33:11.625Z,1.20
2023-05-14T03:35:38.379Z,0.82
2023-05-14T03:40:31.880Z,1.25
2023-05-14T03:42:58.686Z,1.13
2023-05-14T03:47:53.629Z,1.17
2023-05-14T03:50:20.477Z,1.30
2023-05-14T03:55:13.982Z,1.35
2023-05-14T03:57:40.825Z,1.00
2023-05-14T04:00:08.228Z,0.90
2023-05-14T04:02:34.997Z,0.80
2023-05-14T04:05:01.866Z,0.90
2023-05-14T04:07:28.599Z,1.00
2023-05-14T04:12:22.064Z,1.10
2023-05-14T04:17:15.651Z,1.08
2023-05-14T04:22:09.146Z,1.13
2023-05-14T04:24:35.925Z,1.55
2023-05-14T04:27:02.668Z,1.60
2023-05-14T04:31:56.396Z,1.10
2023-05-14T04:34:23.240Z,1.33
2023-05-14T04:36:50.057Z,1.48
2023-05-14T04:39:17.236Z,1.50
2023-05-14T04:41:44.017Z,1.60
2023-05-14T04:44:12.673Z,1.50
2023-05-14T04:46:39.537Z,1.40
2023-05-14T04:49:06.296Z,1.35
2023-05-14T04:53:59.725Z,1.80
2023-05-14T04:56:26.563Z,1.52
2023-05-14T04:58:53.371Z,1.80
2023-05-14T05:01:20.300Z,1.85
2023-05-14T05:03:47.152Z,1.75
2023-05-14T05:06:13.977Z,1.85
2023-05-14T05:08:41.451Z,2.05
2023-05-14T05:11:08.136Z,1.83
2023-05-14T05:16:01.541Z,2.08
2023-05-14T05:20:55.396Z,1.83
2023-05-14T05:23:22.109Z,1.88
2023-05-14T05:28:16.139Z,1.70
2023-05-14T05:30:45.091Z,1.63
2023-05-14T05:33:12.551Z,1.83
2023-05-14T05:35:39.319Z,1.80
2023-05-14T05:38:06.204Z,2.10
2023-05-14T05:40:33.118Z,1.90
2023-05-14T05:42:59.868Z,2.00
2023-05-14T05:47:53.295Z,2.40
2023-05-14T05:50:20.202Z,2.20
2023-05-14T05:52:47.180Z,2.45
2023-05-14T05:55:13.928Z,2.38
2023-05-14T06:00:17.053Z,2.03
2023-05-14T06:02:44.280Z,2.75
2023-05-14T06:05:11.545Z,2.40
2023-05-14T06:07:38.940Z,2.50
2023-05-14T06:10:06.540Z,2.72
2023-05-14T06:12:33.449Z,2.92
2023-05-14T06:15:00.198Z,2.50
2023-05-14T06:19:54.122Z,2.58
2023-05-14T06:22:20.970Z,2.60
2023-05-14T06:24:48.379Z,3.03
2023-05-14T06:27:15.276Z,3.10
2023-05-14T06:29:42.043Z,3.35
2023-05-14T06:34:35.968Z,3.85
2023-05-14T06:37:04.219Z,4.03
2023-05-14T06:39:31.315Z,4.18
2023-05-14T06:41:58.138Z,4.13
2023-05-14T06:44:24.913Z,4.43
2023-05-14T06:49:19.061Z,4.57
2023-05-14T06:51:45.970Z,4.28
2023-05-14T06:54:12.964Z,4.28
2023-05-14T06:56:40.099Z,3.65
2023-05-14T06:59:06.924Z,3.67
2023-05-14T07:01:33.743Z,3.35
2023-05-14T07:04:00.693Z,3.33
2023-05-14T07:06:27.523Z,3.22
2023-05-14T07:08:54.352Z,3.15
2023-05-14T07:11:22.243Z,2.83
2023-05-14T07:13:49.055Z,2.97
2023-05-14T07:18:42.559Z,2.90
2023-05-14T07:21:09.321Z,6.35
2023-05-14T07:26:07.727Z,2.70
2023-05-14T07:28:34.990Z,2.58
2023-05-14T07:31:02.304Z,2.60
2023-05-14T07:33:29.150Z,2.65
2023-05-14T07:35:56.050Z,3.10
2023-05-14T07:38:22.908Z,3.00
2023-05-14T07:40:49.665Z,3.00
2023-05-14T07:45:43.211Z,2.63
2023-05-14T07:48:10.080Z,2.75
2023-05-14T07:50:37.462Z,3.13
2023-05-14T07:53:04.213Z,3.65
2023-05-14T07:57:58.269Z,3.28
2023-05-14T08:02:52.269Z,3.42
2023-05-14T08:05:19.378Z,3.03
2023-05-14T08:10:13.368Z,3.13
2023-05-14T08:12:40.133Z,3.13
2023-05-14T08:17:34.746Z,2.95
2023-05-14T08:20:02.182Z,3.10
2023-05-14T08:22:29.226Z,3.55
2023-05-14T08:24:55.956Z,3.03
2023-05-14T08:29:49.723Z,3.53
2023-05-14T08:34:51.628Z,3.30
2023-05-14T08:37:22.302Z,3.60
2023-05-14T08:39:49.330Z,3.30
2023-05-14T08:42:20.692Z,3.25
2023-05-14T08:45:02.244Z,3.28
2023-05-14T08:47:30.654Z,3.30
2023-05-14T08:50:08.273Z,3.00
2023-05-14T08:52:35.529Z,3.70
2023-05-14T08:55:06.554Z,3.10
2023-05-14T08:57:34.303Z,3.25
2023-05-14T09:00:05.840Z,3.50
2023-05-14T09:02:33.164Z,3.10
2023-05-14T09:05:01.515Z,3.10
2023-05-14T09:07:28.451Z,2.83
2023-05-14T09:09:55.616Z,3.50
2023-05-14T09:12:22.808Z,2.80
2023-05-14T09:14:50.873Z,3.00
2023-05-14T09:17:18.730Z,3.90
2023-05-14T09:19:52.893Z,3.88
2023-05-14T09:22:20.273Z,3.40
2023-05-14T09:24:47.511Z,3.40
2023-05-14T09:27:25.307Z,3.30
2023-05-14T09:29:52.362Z,3.05
2023-05-14T09:32:20.587Z,2.92
2023-05-14T09:34:47.364Z,3.10
2023-05-14T09:39:40.751Z,3.40
2023-05-14T09:42:07.822Z,2.28
2023-05-14T09:44:36.362Z,2.72
2023-05-14T09:47:04.284Z,3.08
2023-05-14T09:49:31.392Z,2.80
2023-05-14T09:51:58.230Z,2.50
2023-05-14T09:54:27.372Z,3.10
2023-05-14T09:56:55.591Z,2.80
2023-05-14T09:59:22.713Z,2.70
2023-05-14T10:04:17.065Z,3.00
2023-05-14T10:06:48.208Z,3.17
2023-05-14T10:09:19.693Z,3.03
2023-05-14T10:11:50.175Z,2.92
2023-05-14T10:14:33.585Z,3.20
2023-05-14T10:17:02.797Z,3.50
2023-05-14T10:19:34.579Z,3.10
2023-05-14T10:22:05.553Z,3.38
2023-05-14T10:24:33.183Z,3.33
2023-05-14T10:27:00.299Z,4.10
2023-05-14T10:29:35.026Z,4.60
2023-05-14T10:32:07.144Z,4.20
2023-05-14T10:34:42.531Z,4.50
2023-05-14T10:37:24.540Z,4.72
2023-05-14T10:39:58.840Z,4.93
2023-05-14T10:42:37.496Z,5.13
2023-05-14T10:45:07.538Z,4.40
2023-05-14T10:47:37.102Z,5.28
2023-05-14T10:50:06.585Z,5.40
2023-05-14T10:52:35.101Z,5.53
2023-05-14T10:55:04.076Z,5.57
2023-05-14T10:57:32.544Z,5.75
2023-05-14T11:00:03.264Z,6.40
2023-05-14T11:02:38.202Z,5.00
2023-05-14T11:05:11.634Z,5.10
2023-05-14T11:07:39.906Z,5.57
2023-05-14T11:10:09.250Z,4.72
2023-05-14T11:12:38.203Z,4.45
2023-05-14T11:15:13.999Z,5.30
2023-05-14T11:17:42.283Z,4.70
2023-05-14T11:20:10.578Z,4.60
2023-05-14T11:22:38.838Z,4.78
2023-05-14T11:25:06.975Z,5.10
2023-05-14T11:27:38.806Z,4.88
2023-05-14T11:30:12.112Z,4.40
2023-05-14T11:32:39.475Z,4.90
2023-05-14T11:35:06.697Z,4.45
2023-05-14T11:37:33.492Z,4.28
2023-05-14T11:42:27.558Z,4.07
2023-05-14T11:47:22.351Z,4.78
2023-05-14T11:49:49.847Z,4.30
2023-05-14T11:52:19.659Z,4.72
2023-05-14T11:54:47.422Z,3.53
2023-05-14T11:57:17.065Z,3.67
2023-05-14T11:59:44.534Z,3.30
2023-05-14T12:02:17.007Z,2.60
2023-05-14T12:04:44.571Z,3.08
2023-05-14T12:07:14.827Z,2.38
2023-05-14T12:09:49.885Z,2.90
2023-05-14T12:12:23.074Z,2.58
2023-05-14T12:17:21.843Z,2.30
2023-05-14T12:19:51.222Z,1.70
2023-05-14T12:22:19.912Z,2.50
2023-05-14T12:25:03.565Z,2.70
2023-05-14T12:27:30.520Z,2.70
2023-05-14T12:30:19.954Z,3.05
2023-05-14T12:32:51.481Z,3.63
2023-05-14T12:35:18.936Z,3.30
2023-05-14T12:37:46.011Z,4.03
2023-05-14T12:40:13.064Z,2.80
2023-05-14T12:42:40.056Z,2.97
2023-05-14T12:45:08.530Z,2.85
2023-05-14T12:47:37.007Z,3.13
2023-05-14T12:50:04.890Z,2.78
2023-05-14T12:55:01.490Z,3.28
2023-05-14T12:57:29.724Z,3.30
2023-05-14T12:59:57.393Z,3.33
2023-05-14T13:02:24.171Z,2.70
2023-05-14T13:04:50.951Z,2.00
2023-05-14T13:07:17.753Z,2.03
2023-05-14T13:09:44.704Z,1.83
2023-05-14T13:12:11.502Z,1.73
2023-05-14T13:14:38.349Z,2.08
2023-05-14T13:17:05.965Z,2.00
2023-05-14T13:19:32.801Z,2.58
2023-05-14T13:24:28.591Z,1.65
2023-05-14T13:26:55.356Z,1.73
2023-05-14T13:29:25.190Z,1.77
2023-05-14T13:31:55.448Z,1.70
2023-05-14T13:34:22.221Z,1.83
2023-05-14T13:36:49.970Z,1.85
2023-05-14T13:39:16.900Z,1.60
2023-05-14T13:41:43.836Z,1.90
2023-05-14T13:44:10.566Z,1.83
2023-05-14T13:49:06.718Z,2.63
2023-05-14T13:51:33.533Z,2.10
2023-05-14T13:54:03.626Z,2.80
2023-05-14T13:56:33.257Z,2.15
2023-05-14T13:59:00.124Z,2.15
2023-05-14T14:01:27.857Z,2.13
2023-05-14T14:03:54.757Z,3.10
2023-05-14T14:06:21.476Z,2.50
2023-05-14T14:11:16.901Z,2.38
2023-05-14T14:13:46.346Z,3.00
2023-05-14T14:16:13.546Z,3.15
2023-05-14T14:18:40.427Z,2.60
2023-05-14T14:21:07.323Z,2.45
2023-05-14T14:23:34.153Z,2.63
2023-05-14T14:26:01.257Z,2.25
2023-05-14T14:28:28.072Z,2.15
2023-05-14T14:30:54.828Z,3.03
2023-05-14T14:33:21.595Z,3.30
2023-05-14T14:35:48.593Z,2.25
2023-05-14T14:38:17.795Z,2.60
2023-05-14T14:40:48.523Z,2.05
2023-05-14T14:43:15.393Z,2.00
2023-05-14T14:45:43.027Z,2.35
2023-05-14T14:48:39.062Z,2.85
2023-05-14T14:51:07.319Z,2.50
2023-05-14T14:53:34.780Z,2.63
2023-05-14T14:56:02.262Z,2.55
2023-05-14T14:58:29.259Z,2.80
2023-05-14T15:00:57.480Z,3.53
2023-05-14T15:03:25.437Z,3.25
2023-05-14T15:05:53.627Z,2.90
2023-05-14T15:08:24.328Z,3.15
2023-05-14T15:10:51.128Z,2.85
2023-05-14T15:13:18.167Z,2.80
2023-05-14T15:15:45.014Z,3.17
2023-05-14T15:18:11.919Z,2.45
2023-05-14T15:20:38.867Z,2.80
2023-05-14T15:23:06.202Z,3.00
2023-05-14T15:25:32.934Z,2.47
2023-05-14T15:30:26.386Z,2.63
2023-05-14T15:35:20.777Z,2.95
2023-05-14T15:37:47.563Z,2.80
2023-05-14T15:42:43.641Z,2.65
2023-05-14T15:45:14.220Z,2.33
2023-05-14T15:47:41.811Z,2.92
2023-05-14T15:50:09.163Z,2.50
2023-05-14T15:52:36.463Z,2.83
2023-05-14T15:55:04.449Z,2.90
2023-05-14T15:57:31.741Z,2.60
2023-05-14T15:59:58.499Z,2.40
2023-05-14T16:04:51.994Z,2.50
2023-05-14T16:09:45.546Z,2.47
2023-05-14T16:12:12.508Z,2.70
2023-05-14T16:14:41.825Z,2.50
2023-05-14T16:17:09.213Z,2.15
2023-05-14T16:19:35.993Z,2.22
2023-05-14T16:24:29.451Z,2.20
2023-05-14T16:29:23.029Z,2.28
2023-05-14T16:34:16.605Z,3.20
2023-05-14T16:39:11.458Z,2.55
2023-05-14T16:41:38.236Z,2.53
2023-05-14T16:46:32.250Z,2.97
2023-05-14T16:48:59.289Z,3.20
2023-05-14T16:51:26.062Z,3.00
2023-05-14T16:56:22.553Z,2.83
2023-05-14T16:58:49.440Z,3.83
2023-05-14T17:01:16.445Z,3.67
2023-05-14T17:03:44.714Z,3.80
2023-05-14T17:06:11.652Z,3.40
2023-05-14T17:08:38.492Z,3.80
2023-05-14T17:11:05.983Z,3.80
2023-05-14T17:13:33.527Z,4.43
2023-05-14T17:16:00.935Z,3.53
2023-05-14T17:18:27.884Z,3.60
2023-05-14T17:20:54.684Z,3.72
2023-05-14T17:25:48.187Z,3.67
2023-05-14T17:30:41.619Z,3.10
2023-05-14T17:35:36.453Z,2.65
2023-05-14T17:38:03.656Z,2.30
2023-05-14T17:40:30.510Z,3.25
2023-05-14T17:42:57.284Z,2.50
2023-05-14T17:47:51.418Z,2.88
2023-05-14T17:50:18.912Z,2.90
2023-05-14T17:52:46.199Z,2.95
2023-05-14T17:55:13.174Z,3.40
2023-05-14T17:57:40.156Z,2.70
2023-05-14T18:00:08.182Z,3.03
2023-05-14T18:02:35.103Z,3.22
2023-05-14T18:05:02.861Z,2.78
2023-05-14T18:07:30.732Z,2.75
2023-05-14T18:09:58.120Z,3.72
2023-05-14T18:12:27.688Z,3.30
2023-05-14T18:14:54.605Z,2.90
2023-05-14T18:17:21.597Z,3.10
2023-05-14T18:19:48.450Z,3.35
2023-05-14T18:22:15.742Z,3.65
2023-05-14T18:24:44.276Z,3.30
2023-05-14T18:27:11.141Z,3.80
2023-05-14T18:29:37.957Z,3.90
2023-05-14T18:32:05.204Z,3.70
2023-05-14T18:34:31.907Z,4.20
2023-05-14T18:39:25.544Z,3.83
2023-05-14T18:41:52.380Z,3.95
2023-05-14T18:44:19.169Z,4.05
2023-05-14T18:46:46.170Z,4.00
2023-05-14T18:49:13.010Z,3.95
2023-05-14T18:54:06.630Z,3.33
2023-05-14T18:56:33.959Z,3.10
2023-05-14T18:59:00.727Z,3.65
2023-05-14T19:01:28.145Z,3.55
2023-05-14T19:03:55.230Z,4.20
2023-05-14T19:06:22.205Z,4.68
2023-05-14T19:08:48.953Z,4.18
2023-05-14T19:13:46.613Z,4.13
2023-05-14T19:16:13.770Z,4.38
2023-05-14T19:18:41.179Z,4.20
2023-05-14T19:21:08.195Z,4.63
2023-05-14T19:23:34.982Z,4.22
2023-05-14T19:26:01.739Z,4.40
2023-05-14T19:30:57.193Z,4.35
2023-05-14T19:33:24.296Z,5.13
2023-05-14T19:35:51.290Z,5.30
2023-05-14T19:38:19.691Z,5.75
2023-05-14T19:40:46.422Z,5.30
2023-05-14T19:45:42.636Z,5.63
2023-05-14T19:48:09.524Z,6.13
2023-05-14T19:50:37.170Z,5.90
2023-05-14T19:53:04.580Z,5.97
2023-05-14T19:55:31.344Z,5.55
2023-05-14T19:57:58.159Z,5.32
2023-05-14T20:00:25.069Z,4.97
2023-05-14T20:02:52.006Z,4.50
2023-05-14T20:05:18.942Z,4.72
2023-05-14T20:07:48.870Z,4.82
2023-05-14T20:10:15.632Z,5.05
2023-05-14T20:12:42.363Z,5.32
2023-05-14T20:17:37.283Z,5.07
2023-05-14T20:20:04.963Z,5.63
2023-05-14T20:22:31.758Z,5.90
2023-05-14T20:24:58.705Z,6.03
2023-05-14T20:27:25.765Z,5.80
2023-05-14T20:29:54.055Z,6.07
2023-05-14T20:32:24.920Z,5.82
2023-05-14T20:34:52.115Z,5.80
2023-05-14T20:37:19.835Z,5.82
2023-05-14T20:39:47.025Z,6.70
2023-05-14T20:42:13.750Z,6.32
2023-05-14T20:47:07.208Z,5.82
2023-05-14T20:49:33.960Z,6.47
2023-05-14T20:54:27.435Z,5.97
2023-05-14T20:59:20.789Z,5.70
2023-05-14T21:04:15.286Z,5.68
2023-05-14T21:06:42.254Z,5.88
2023-05-14T21:11:35.774Z,6.43
2023-05-14T21:14:02.564Z,5.82
2023-05-14T21:16:31.224Z,5.20
2023-05-14T21:18:58.149Z,5.40
2023-05-14T21:21:25.911Z,5.30
2023-05-14T21:23:52.633Z,5.97
2023-05-14T21:28:48.932Z,5.57
2023-05-14T21:31:15.736Z,5.72
2023-05-14T21:36:09.806Z,5.70
2023-05-14T21:38:36.804Z,6.07
2023-05-14T21:41:03.829Z,5.45
2023-05-14T21:43:30.969Z,5.63
2023-05-14T21:45:57.745Z,5.75
2023-05-14T21:48:24.704Z,6.43
2023-05-14T21:50:51.590Z,5.82
2023-05-14T21:53:18.420Z,5.57
2023-05-14T21:55:45.289Z,6.35
2023-05-14T21:58:12.055Z,5.72
2023-05-14T22:03:05.872Z,6.65
2023-05-14T22:05:32.770Z,5.75
2023-05-14T22:07:59.517Z,6.22
2023-05-14T22:12:52.948Z,5.55
2023-05-14T22:15:19.721Z,6.55
2023-05-14T22:20:14.260Z,6.82
2023-05-14T22:22:41.032Z,7.50
2023-05-14T22:27:34.774Z,7.43
2023-05-14T22:32:28.096Z,8.05
2023-05-14T22:37:21.923Z,7.85
2023-05-14T22:42:15.582Z,7.97
2023-05-14T22:44:42.275Z,9.38
2023-05-14T22:49:35.820Z,10.15
2023-05-14T22:52:03.213Z,10.45
2023-05-14T22:54:29.961Z,9.73
2023-05-14T22:59:23.839Z,10.70
2023-05-14T23:01:51.042Z,9.48
2023-05-14T23:04:17.920Z,10.40
2023-05-14T23:06:44.826Z,10.85
2023-05-14T23:09:11.766Z,10.27
2023-05-14T23:11:38.588Z,10.57
2023-05-14T23:14:05.369Z,11.20
2023-05-14T23:18:59.119Z,11.43
2023-05-14T23:21:26.041Z,9.88
2023-05-14T23:23:52.857Z,10.93
2023-05-14T23:28:47.406Z,12.23
2023-05-14T23:31:14.352Z,12.05
2023-05-14T23:33:41.112Z,12.43
2023-05-14T23:38:34.885Z,12.20
2023-05-14T23:41:01.639Z,12.75
2023-05-14T23:45:55.157Z,11.15
2023-05-14T23:48:21.966Z,11.25
2023-05-14T23:53:15.338Z,11.82
2023-05-14T23:58:08.960Z,11.32
